createdAt,value
2019-03-31T00:02:37.915Z,5.40
2019-03-31T00:05:42.819Z,6.17
2019-03-31T00:08:48.703Z,5.20
2019-03-31T00:11:53.624Z,4.20
2019-03-31T00:14:58.465Z,7.43
2019-03-31T00:18:03.247Z,5.07
2019-03-31T00:21:08.460Z,5.47
2019-03-31T00:24:14.096Z,5.13
2019-03-31T00:27:19.899Z,6.33
2019-03-31T00:30:25.178Z,5.63
2019-03-31T00:33:30.420Z,6.23
2019-03-31T00:36:36.193Z,5.43
2019-03-31T00:39:41.948Z,5.83
2019-03-31T00:42:46.788Z,6.60
2019-03-31T00:45:51.604Z,5.20
2019-03-31T00:48:56.366Z,5.77
2019-03-31T00:52:01.248Z,5.47
2019-03-31T00:55:07.316Z,4.27
2019-03-31T00:58:12.125Z,6.00
2019-03-31T01:01:36.641Z,4.83
2019-03-31T01:04:39.598Z,6.70
2019-03-31T01:07:44.481Z,5.97
2019-03-31T01:10:49.680Z,6.00
2019-03-31T01:13:54.604Z,5.90
2019-03-31T01:17:01.261Z,5.97
2019-03-31T01:20:06.351Z,6.03
2019-03-31T01:23:11.626Z,5.83
2019-03-31T01:26:19.806Z,5.53
2019-03-31T01:29:25.731Z,5.20
2019-03-31T01:32:30.606Z,5.57
2019-03-31T01:35:35.452Z,6.17
2019-03-31T01:38:40.698Z,5.60
2019-03-31T01:41:45.525Z,6.33
2019-03-31T01:44:50.913Z,5.63
2019-03-31T01:47:56.175Z,5.97
2019-03-31T01:51:02.031Z,5.87
2019-03-31T01:54:06.809Z,6.43
2019-03-31T01:57:11.593Z,7.83
2019-03-31T02:00:35.796Z,7.00
2019-03-31T02:03:40.648Z,6.40
2019-03-31T02:06:46.348Z,7.03
2019-03-31T02:09:51.216Z,5.73
2019-03-31T02:12:56.258Z,7.43
2019-03-31T02:16:01.141Z,6.40
2019-03-31T02:19:06.982Z,6.93
2019-03-31T02:22:11.865Z,7.77
2019-03-31T02:25:16.816Z,7.50
2019-03-31T02:28:23.048Z,6.63
2019-03-31T02:31:27.915Z,6.97
2019-03-31T02:34:32.862Z,5.37
2019-03-31T02:37:37.717Z,5.27
2019-03-31T02:40:42.520Z,6.23
2019-03-31T02:43:49.279Z,8.23
2019-03-31T02:46:54.519Z,6.90
2019-03-31T02:49:59.275Z,5.73
2019-03-31T02:53:05.126Z,6.23
2019-03-31T02:56:11.260Z,5.63
2019-03-31T02:59:18.263Z,6.03
2019-03-31T03:02:40.619Z,5.63
2019-03-31T03:05:33.331Z,6.13
2019-03-31T03:08:41.056Z,6.77
2019-03-31T03:11:48.131Z,7.13
2019-03-31T03:15:11.756Z,6.00
2019-03-31T03:18:16.958Z,7.37
2019-03-31T03:21:24.551Z,6.67
2019-03-31T03:24:29.960Z,6.57
2019-03-31T03:27:35.713Z,5.33
2019-03-31T03:30:40.774Z,8.47
2019-03-31T03:33:45.929Z,7.17
2019-03-31T03:36:50.789Z,5.97
2019-03-31T03:39:56.074Z,6.00
2019-03-31T03:43:00.988Z,6.30
2019-03-31T03:46:05.812Z,6.50
2019-03-31T03:49:10.808Z,6.53
2019-03-31T03:52:16.405Z,6.50
2019-03-31T03:55:22.569Z,7.77
2019-03-31T03:58:27.805Z,5.97
2019-03-31T04:01:33.163Z,7.23
2019-03-31T04:04:38.075Z,7.57
2019-03-31T04:07:42.839Z,7.63
2019-03-31T04:11:24.879Z,6.97
2019-03-31T04:14:29.814Z,7.70
2019-03-31T04:17:34.749Z,6.73
2019-03-31T04:20:39.810Z,6.90
2019-03-31T04:23:45.385Z,6.33
2019-03-31T04:26:50.259Z,6.07
2019-03-31T04:29:55.164Z,6.97
2019-03-31T04:33:00.031Z,6.03
2019-03-31T04:36:04.998Z,6.33
2019-03-31T04:39:09.890Z,8.57
2019-03-31T04:42:15.153Z,7.40
2019-03-31T04:45:20.376Z,6.87
2019-03-31T04:48:25.633Z,6.47
2019-03-31T04:51:30.546Z,6.10
2019-03-31T04:54:36.278Z,6.67
2019-03-31T04:57:41.184Z,7.07
2019-03-31T05:01:04.813Z,7.10
2019-03-31T05:04:11.583Z,5.93
2019-03-31T05:07:16.896Z,6.83
2019-03-31T05:10:22.506Z,6.13
2019-03-31T05:13:28.301Z,6.00
2019-03-31T05:16:33.215Z,7.53
2019-03-31T05:19:38.077Z,7.87
2019-03-31T05:22:43.043Z,6.03
2019-03-31T05:25:49.144Z,5.50
2019-03-31T05:28:54.320Z,4.63
2019-03-31T05:31:59.222Z,6.20
2019-03-31T05:35:04.166Z,5.90
2019-03-31T05:38:09.367Z,6.20
2019-03-31T05:41:14.619Z,5.70
2019-03-31T05:44:20.730Z,7.57
2019-03-31T05:47:25.572Z,7.87
2019-03-31T05:50:30.680Z,6.27
2019-03-31T05:53:35.629Z,6.53
2019-03-31T05:56:40.557Z,6.07
2019-03-31T05:59:45.698Z,6.33
2019-03-31T06:02:50.551Z,6.97
2019-03-31T06:05:55.732Z,6.43
2019-03-31T06:09:00.580Z,6.37
2019-03-31T06:12:05.433Z,8.13
2019-03-31T06:15:11.950Z,6.13
2019-03-31T06:18:16.816Z,7.53
2019-03-31T06:21:22.062Z,6.87
2019-03-31T06:24:28.374Z,5.97
2019-03-31T06:27:33.260Z,5.70
2019-03-31T06:30:38.554Z,8.47
2019-03-31T06:33:43.387Z,8.33
2019-03-31T06:36:49.200Z,7.47
2019-03-31T06:40:05.135Z,7.40
2019-03-31T06:43:10.942Z,8.07
2019-03-31T06:46:18.235Z,6.90
2019-03-31T06:49:23.418Z,7.10
2019-03-31T06:52:29.356Z,7.57
2019-03-31T06:55:34.645Z,8.23
2019-03-31T06:58:39.953Z,7.77
2019-03-31T07:01:45.261Z,6.30
2019-03-31T07:05:00.900Z,8.97
2019-03-31T07:07:57.765Z,7.60
2019-03-31T07:11:02.972Z,8.33
2019-03-31T07:14:07.908Z,8.57
2019-03-31T07:17:13.135Z,7.83
2019-03-31T07:20:18.302Z,8.63
2019-03-31T07:23:23.791Z,7.90
2019-03-31T07:26:28.621Z,7.67
2019-03-31T07:29:34.659Z,7.77
2019-03-31T07:32:39.532Z,7.50
2019-03-31T07:35:45.409Z,8.73
2019-03-31T07:38:50.425Z,10.20
2019-03-31T07:41:55.447Z,8.83
2019-03-31T07:45:00.459Z,8.63
2019-03-31T07:48:08.124Z,8.83
2019-03-31T07:51:12.333Z,9.10
2019-03-31T07:54:17.225Z,9.70
2019-03-31T07:57:23.076Z,10.40
2019-03-31T08:00:29.036Z,10.30
2019-03-31T08:03:33.897Z,10.33
2019-03-31T08:06:38.768Z,9.30
2019-03-31T08:09:43.539Z,10.83
2019-03-31T08:12:48.403Z,10.17
2019-03-31T08:15:54.333Z,9.83
2019-03-31T08:18:59.533Z,10.13
2019-03-31T08:22:04.987Z,9.57
2019-03-31T08:25:21.343Z,11.80
2019-03-31T08:28:27.114Z,11.27
2019-03-31T08:31:31.968Z,12.40
2019-03-31T08:34:36.844Z,12.70
2019-03-31T08:37:41.729Z,12.23
2019-03-31T08:40:47.022Z,13.43
2019-03-31T08:43:51.894Z,13.73
2019-03-31T08:46:56.768Z,13.33
2019-03-31T08:50:02.724Z,15.60
2019-03-31T08:53:07.806Z,15.77
2019-03-31T08:56:12.689Z,15.97
2019-03-31T08:59:17.927Z,15.70
2019-03-31T09:02:24.476Z,15.00
2019-03-31T09:05:29.524Z,17.60
2019-03-31T09:08:34.893Z,16.97
2019-03-31T09:11:40.082Z,18.27
2019-03-31T09:14:45.274Z,19.90
2019-03-31T09:17:50.055Z,18.13
2019-03-31T09:21:00.150Z,16.73
2019-03-31T09:24:04.979Z,16.70
2019-03-31T09:27:11.066Z,17.33
2019-03-31T09:30:35.397Z,18.00
2019-03-31T09:33:43.374Z,18.47
2019-03-31T09:36:48.256Z,25.20
2019-03-31T09:39:53.155Z,23.80
2019-03-31T09:42:58.038Z,24.17
2019-03-31T09:46:03.452Z,22.70
2019-03-31T09:49:08.471Z,20.20
2019-03-31T09:52:13.640Z,25.73
2019-03-31T09:55:22.853Z,19.23
2019-03-31T09:58:26.095Z,19.50
2019-03-31T10:01:34.028Z,20.50
2019-03-31T10:04:39.692Z,20.30
2019-03-31T10:07:45.887Z,21.23
2019-03-31T10:10:52.672Z,18.97
2019-03-31T10:13:57.545Z,21.53
2019-03-31T10:17:02.501Z,20.07
2019-03-31T10:20:08.421Z,18.83
2019-03-31T10:23:13.805Z,22.33
2019-03-31T10:26:31.998Z,19.70
2019-03-31T10:29:38.580Z,16.73
2019-03-31T10:32:44.337Z,19.57
2019-03-31T10:35:49.157Z,24.70
2019-03-31T10:38:53.998Z,22.80
2019-03-31T10:41:58.914Z,17.37
2019-03-31T10:45:04.491Z,19.20
2019-03-31T10:48:20.394Z,19.27
2019-03-31T10:51:25.554Z,24.57
2019-03-31T10:54:30.446Z,24.23
2019-03-31T10:57:35.420Z,21.00
2019-03-31T11:00:44.676Z,23.33
2019-03-31T11:03:50.703Z,22.00
2019-03-31T11:06:59.550Z,25.80
2019-03-31T11:10:02.205Z,22.87
2019-03-31T11:13:07.341Z,32.53
2019-03-31T11:16:12.205Z,29.97
2019-03-31T11:19:22.773Z,25.13
2019-03-31T11:22:42.604Z,32.40
2019-03-31T11:25:52.102Z,25.43
2019-03-31T11:28:57.827Z,22.33
2019-03-31T11:32:13.657Z,28.83
2019-03-31T11:35:22.828Z,28.00
2019-03-31T11:38:34.680Z,34.20
2019-03-31T11:41:45.630Z,28.33
2019-03-31T11:44:58.388Z,27.23
2019-03-31T11:48:11.881Z,21.63
2019-03-31T11:51:21.790Z,21.30
2019-03-31T11:54:34.315Z,25.33
2019-03-31T11:57:39.357Z,27.80
2019-03-31T12:00:49.994Z,26.80
2019-03-31T12:03:54.801Z,25.10
2019-03-31T12:06:59.681Z,22.67
2019-03-31T12:10:08.278Z,22.00
2019-03-31T12:13:13.220Z,24.23
2019-03-31T12:16:18.014Z,24.30
2019-03-31T12:19:22.803Z,23.13
2019-03-31T12:22:46.465Z,25.33
2019-03-31T12:25:51.353Z,21.00
2019-03-31T12:28:56.226Z,20.17
2019-03-31T12:32:03.644Z,23.67
2019-03-31T12:35:08.989Z,19.53
2019-03-31T12:38:14.600Z,24.00
2019-03-31T12:41:19.458Z,22.80
2019-03-31T12:44:25.234Z,25.30
2019-03-31T12:47:30.286Z,23.40
2019-03-31T12:50:35.099Z,19.60
2019-03-31T12:53:39.887Z,19.77
2019-03-31T12:56:45.219Z,24.87
2019-03-31T12:59:50.114Z,25.03
2019-03-31T13:02:55.341Z,25.43
2019-03-31T13:06:02.595Z,25.77
2019-03-31T13:09:08.677Z,22.17
2019-03-31T13:12:13.544Z,21.10
2019-03-31T13:15:18.402Z,25.33
2019-03-31T13:18:23.309Z,30.10
2019-03-31T13:21:28.103Z,31.47
2019-03-31T13:24:34.195Z,26.27
2019-03-31T13:27:39.594Z,29.93
2019-03-31T13:30:44.565Z,28.43
2019-03-31T13:33:49.474Z,28.50
2019-03-31T13:36:54.951Z,32.27
2019-03-31T13:39:59.836Z,30.43
2019-03-31T13:43:04.746Z,25.03
2019-03-31T13:46:09.690Z,32.40
2019-03-31T13:49:14.696Z,27.77
2019-03-31T13:52:19.528Z,30.00
2019-03-31T13:55:25.381Z,27.63
2019-03-31T13:58:30.550Z,28.67
2019-03-31T14:01:35.830Z,27.00
2019-03-31T14:04:51.592Z,22.03
2019-03-31T14:07:48.946Z,21.43
2019-03-31T14:10:53.895Z,25.13
2019-03-31T14:13:58.822Z,23.60
2019-03-31T14:17:04.684Z,35.03
2019-03-31T14:20:09.955Z,29.40
2019-03-31T14:23:15.142Z,25.80
2019-03-31T14:26:19.918Z,24.33
2019-03-31T14:29:24.817Z,22.77
2019-03-31T14:32:29.758Z,24.10
2019-03-31T14:35:37.833Z,26.27
2019-03-31T14:38:41.139Z,23.93
2019-03-31T14:41:46.385Z,20.77
2019-03-31T14:44:51.186Z,23.73
2019-03-31T14:47:56.101Z,19.20
2019-03-31T14:51:00.976Z,21.50
2019-03-31T14:54:05.839Z,24.37
2019-03-31T14:57:10.998Z,21.53
2019-03-31T15:00:16.181Z,18.57
2019-03-31T15:03:21.029Z,23.60
2019-03-31T15:06:25.833Z,27.10
2019-03-31T15:09:31.232Z,17.37
2019-03-31T15:12:36.090Z,26.80
2019-03-31T15:15:40.920Z,22.97
2019-03-31T15:18:46.249Z,23.77
2019-03-31T15:21:54.439Z,21.77
2019-03-31T15:25:01.091Z,21.33
2019-03-31T15:28:05.988Z,21.73
2019-03-31T15:31:11.323Z,19.03
2019-03-31T15:34:16.660Z,22.13
2019-03-31T15:37:21.872Z,21.37
2019-03-31T15:40:26.857Z,18.17
2019-03-31T15:43:31.713Z,19.30
2019-03-31T15:46:38.056Z,18.70
2019-03-31T15:49:42.910Z,20.90
2019-03-31T15:52:47.851Z,18.10
2019-03-31T15:55:53.560Z,18.83
2019-03-31T15:59:00.492Z,19.97
2019-03-31T16:02:05.441Z,20.30
2019-03-31T16:05:12.846Z,17.87
2019-03-31T16:08:17.824Z,15.57
2019-03-31T16:11:22.220Z,15.37
2019-03-31T16:14:26.945Z,12.60
2019-03-31T16:17:31.325Z,16.57
2019-03-31T16:20:36.070Z,16.30
2019-03-31T16:23:40.515Z,14.77
2019-03-31T16:26:44.888Z,16.53
2019-03-31T16:29:49.631Z,14.10
2019-03-31T16:32:53.860Z,22.63
2019-03-31T16:35:58.294Z,19.30
2019-03-31T16:39:03.671Z,18.50
2019-03-31T16:42:08.060Z,16.27
2019-03-31T16:45:12.863Z,19.53
2019-03-31T16:48:17.589Z,15.80
2019-03-31T16:51:22.335Z,18.67
2019-03-31T16:54:26.984Z,16.43
2019-03-31T16:57:31.363Z,15.53
2019-03-31T17:00:36.040Z,16.03
2019-03-31T17:03:40.425Z,13.87
2019-03-31T17:06:44.842Z,10.63
2019-03-31T17:09:51.656Z,12.80
2019-03-31T17:12:55.256Z,13.33
2019-03-31T17:15:59.915Z,11.70
2019-03-31T17:19:04.249Z,16.10
2019-03-31T17:22:08.607Z,16.40
2019-03-31T17:25:13.216Z,15.20
2019-03-31T17:28:17.596Z,15.10
2019-03-31T17:31:21.991Z,11.43
2019-03-31T17:34:26.659Z,13.27
2019-03-31T17:37:31.912Z,14.80
2019-03-31T17:40:36.433Z,11.23
2019-03-31T17:43:41.068Z,14.17
2019-03-31T17:46:45.500Z,18.43
2019-03-31T17:49:50.245Z,13.27
2019-03-31T17:52:55.162Z,14.00
2019-03-31T17:56:02.759Z,12.53
2019-03-31T17:59:08.892Z,12.37
2019-03-31T18:02:13.498Z,13.60
2019-03-31T18:05:18.234Z,10.63
2019-03-31T18:08:22.557Z,10.80
2019-03-31T18:11:26.809Z,13.50
2019-03-31T18:14:31.152Z,11.63
2019-03-31T18:17:36.805Z,10.10
2019-03-31T18:20:41.915Z,9.23
2019-03-31T18:23:48.940Z,10.13
2019-03-31T18:26:53.355Z,7.83
2019-03-31T18:29:58.137Z,8.90
2019-03-31T18:33:04.111Z,7.77
2019-03-31T18:36:08.464Z,8.47
2019-03-31T18:39:13.194Z,7.23
2019-03-31T18:42:17.530Z,6.80
2019-03-31T18:45:21.887Z,5.90
2019-03-31T18:48:26.208Z,5.23
2019-03-31T18:51:30.569Z,5.80
2019-03-31T18:55:03.343Z,6.10
2019-03-31T18:58:15.071Z,5.53
2019-03-31T19:01:26.020Z,4.37
2019-03-31T19:04:57.578Z,7.47
2019-03-31T19:08:33.521Z,5.73
2019-03-31T19:12:05.980Z,5.73
2019-03-31T19:15:39.200Z,6.03
2019-03-31T19:19:01.960Z,6.83
2019-03-31T19:22:25.646Z,6.27
2019-03-31T19:25:52.359Z,6.03
2019-03-31T19:29:10.464Z,6.60
2019-03-31T19:32:33.321Z,6.37
2019-03-31T19:35:50.180Z,5.50
2019-03-31T19:39:20.407Z,5.13
2019-03-31T19:42:48.897Z,4.93
2019-03-31T19:46:13.353Z,5.50
2019-03-31T19:49:36.349Z,7.93
2019-03-31T19:52:54.981Z,5.67
2019-03-31T19:56:31.179Z,7.83
2019-03-31T20:00:01.207Z,4.90
2019-03-31T20:03:34.198Z,5.77
2019-03-31T20:06:56.707Z,6.77
2019-03-31T20:10:16.733Z,6.03
2019-03-31T20:13:43.176Z,4.47
2019-03-31T20:17:12.298Z,5.63
2019-03-31T20:20:44.638Z,4.20
2019-03-31T20:24:16.736Z,5.07
2019-03-31T20:27:41.617Z,5.27
2019-03-31T20:30:56.200Z,6.00
2019-03-31T20:34:47.668Z,6.20
2019-03-31T20:38:16.815Z,6.50
2019-03-31T20:41:43.453Z,5.40
2019-03-31T20:44:47.770Z,4.80
2019-03-31T20:47:52.088Z,4.70
2019-03-31T20:50:56.799Z,5.00
2019-03-31T20:54:02.326Z,4.80
2019-03-31T20:57:07.131Z,4.50
2019-03-31T21:00:12.030Z,4.87
2019-03-31T21:03:16.358Z,5.47
2019-03-31T21:06:20.725Z,3.90
2019-03-31T21:09:25.299Z,5.13
2019-03-31T21:12:29.681Z,3.80
2019-03-31T21:15:34.034Z,5.20
2019-03-31T21:18:42.327Z,3.93
2019-03-31T21:21:46.739Z,5.33
2019-03-31T21:24:51.071Z,4.63
2019-03-31T21:27:55.649Z,4.00
2019-03-31T21:30:59.898Z,3.33
2019-03-31T21:34:04.594Z,3.43
2019-03-31T21:37:08.891Z,3.50
2019-03-31T21:40:13.652Z,3.60
2019-03-31T21:43:17.990Z,3.23
2019-03-31T21:46:22.415Z,3.73
2019-03-31T21:49:27.120Z,4.03
2019-03-31T21:52:31.921Z,5.07
2019-03-31T21:55:36.495Z,4.83
2019-03-31T21:58:41.257Z,5.97
2019-03-31T22:01:45.999Z,4.20
2019-03-31T22:04:50.318Z,2.77
2019-03-31T22:07:55.040Z,3.77
2019-03-31T22:10:59.755Z,4.60
2019-03-31T22:14:16.176Z,2.77
2019-03-31T22:17:22.116Z,3.30
2019-03-31T22:20:26.749Z,4.63
2019-03-31T22:23:31.030Z,3.30
2019-03-31T22:26:36.840Z,5.57
2019-03-31T22:29:41.201Z,4.27
2019-03-31T22:32:45.608Z,3.73
2019-03-31T22:36:07.952Z,3.30
2019-03-31T22:39:12.329Z,5.53
2019-03-31T22:42:16.629Z,2.80
2019-03-31T22:45:21.187Z,2.50
2019-03-31T22:48:25.999Z,4.20
2019-03-31T22:51:30.634Z,3.17
2019-03-31T22:54:34.899Z,3.17
2019-03-31T22:57:39.317Z,3.73
2019-03-31T23:00:43.621Z,4.17
2019-03-31T23:03:48.026Z,3.77
2019-03-31T23:06:52.344Z,4.43
2019-03-31T23:09:57.066Z,4.67
2019-03-31T23:13:01.389Z,2.77
2019-03-31T23:16:06.226Z,3.47
2019-03-31T23:19:10.587Z,3.77
2019-03-31T23:22:14.893Z,2.83
2019-03-31T23:25:19.897Z,3.33
2019-03-31T23:28:24.292Z,4.73
2019-03-31T23:31:28.729Z,5.30
2019-03-31T23:34:33.397Z,4.93
2019-03-31T23:37:38.136Z,3.83
2019-03-31T23:40:42.785Z,3.67
2019-03-31T23:43:49.065Z,4.10
2019-03-31T23:46:53.330Z,5.33
2019-03-31T23:49:58.317Z,2.77
2019-03-31T23:53:02.661Z,4.03
2019-03-31T23:56:07.045Z,4.67
2019-03-31T23:59:11.391Z,3.53
